sensor_id;sensor_type;location;lat;lon;timestamp;temperature;humidity
26990;DHT22;14537;47.788;11.858;2022-08-20T00:02:24;15.90;99.90
26990;DHT22;14537;47.788;11.858;2022-08-20T00:04:50;15.90;99.90
26990;DHT22;14537;47.788;11.858;2022-08-20T00:07:16;15.90;99.90
26990;DHT22;14537;47.788;11.858;2022-08-20T00:09:42;15.90;99.90
26990;DHT22;14537;47.788;11.858;2022-08-20T00:12:08;15.90;99.90
26990;DHT22;14537;47.788;11.858;2022-08-20T00:14:34;15.90;99.90
26990;DHT22;14537;47.788;11.858;2022-08-20T00:17:00;15.90;99.90
26990;DHT22;14537;47.788;11.858;2022-08-20T00:19:26;16.00;99.90
26990;DHT22;14537;47.788;11.858;2022-08-20T00:21:51;16.00;99.90
26990;DHT22;14537;47.788;11.858;2022-08-20T00:24:17;15.90;99.90
26990;DHT22;14537;47.788;11.858;2022-08-20T00:26:42;15.90;99.90
26990;DHT22;14537;47.788;11.858;2022-08-20T00:29:08;15.90;99.90
26990;DHT22;14537;47.788;11.858;2022-08-20T00:31:34;15.90;99.90
26990;DHT22;14537;47.788;11.858;2022-08-20T00:33:59;15.90;99.90
26990;DHT22;14537;47.788;11.858;2022-08-20T00:36:25;15.90;99.90
26990;DHT22;14537;47.788;11.858;2022-08-20T00:38:51;15.90;99.90
26990;DHT22;14537;47.788;11.858;2022-08-20T00:41:19;15.90;99.90
26990;DHT22;14537;47.788;11.858;2022-08-20T00:43:46;15.90;99.90
26990;DHT22;14537;47.788;11.858;2022-08-20T00:48:39;15.90;99.90
26990;DHT22;14537;47.788;11.858;2022-08-20T00:51:07;15.90;99.90
26990;DHT22;14537;47.788;11.858;2022-08-20T00:53:33;15.90;99.90
26990;DHT22;14537;47.788;11.858;2022-08-20T00:56:00;15.90;99.90
26990;DHT22;14537;47.788;11.858;2022-08-20T00:58:25;15.90;99.90
26990;DHT22;14537;47.788;11.858;2022-08-20T01:00:53;15.90;99.90
26990;DHT22;14537;47.788;11.858;2022-08-20T01:03:19;15.90;99.90
26990;DHT22;14537;47.788;11.858;2022-08-20T01:05:46;15.90;99.90
26990;DHT22;14537;47.788;11.858;2022-08-20T01:08:13;15.90;99.90
26990;DHT22;14537;47.788;11.858;2022-08-20T01:10:40;15.90;99.90
26990;DHT22;14537;47.788;11.858;2022-08-20T01:13:07;15.90;99.90
26990;DHT22;14537;47.788;11.858;2022-08-20T01:15:34;15.90;99.90
26990;DHT22;14537;47.788;11.858;2022-08-20T01:18:00;15.90;99.90
26990;DHT22;14537;47.788;11.858;2022-08-20T01:20:27;15.90;99.90
26990;DHT22;14537;47.788;11.858;2022-08-20T01:28:34;15.90;99.90
26990;DHT22;14537;47.788;11.858;2022-08-20T01:31:01;15.90;99.90
26990;DHT22;14537;47.788;11.858;2022-08-20T01:33:28;15.90;99.90
26990;DHT22;14537;47.788;11.858;2022-08-20T01:35:53;16.00;99.90
26990;DHT22;14537;47.788;11.858;2022-08-20T01:38:19;16.00;99.90
26990;DHT22;14537;47.788;11.858;2022-08-20T01:43:19;16.00;99.90
26990;DHT22;14537;47.788;11.858;2022-08-20T01:45:45;16.00;99.90
26990;DHT22;14537;47.788;11.858;2022-08-20T01:48:11;16.00;99.90
26990;DHT22;14537;47.788;11.858;2022-08-20T01:50:37;16.00;99.90
26990;DHT22;14537;47.788;11.858;2022-08-20T01:53:07;15.90;99.90
26990;DHT22;14537;47.788;11.858;2022-08-20T01:55:35;15.90;99.90
26990;DHT22;14537;47.788;11.858;2022-08-20T01:58:02;15.90;99.90
26990;DHT22;14537;47.788;11.858;2022-08-20T02:00:27;15.90;99.90
26990;DHT22;14537;47.788;11.858;2022-08-20T02:02:53;15.90;99.90
26990;DHT22;14537;47.788;11.858;2022-08-20T02:05:18;15.90;99.90
26990;DHT22;14537;47.788;11.858;2022-08-20T02:07:44;15.90;99.90
26990;DHT22;14537;47.788;11.858;2022-08-20T02:10:11;15.90;99.90
26990;DHT22;14537;47.788;11.858;2022-08-20T02:12:37;15.90;99.90
26990;DHT22;14537;47.788;11.858;2022-08-20T02:15:05;15.90;99.90
26990;DHT22;14537;47.788;11.858;2022-08-20T02:17:32;15.80;99.90
26990;DHT22;14537;47.788;11.858;2022-08-20T02:19:59;15.80;99.90
26990;DHT22;14537;47.788;11.858;2022-08-20T02:22:36;15.80;99.90
26990;DHT22;14537;47.788;11.858;2022-08-20T02:25:05;15.80;99.90
26990;DHT22;14537;47.788;11.858;2022-08-20T02:27:31;15.80;99.90
26990;DHT22;14537;47.788;11.858;2022-08-20T02:29:57;15.80;99.90
26990;DHT22;14537;47.788;11.858;2022-08-20T02:32:23;15.80;99.90
26990;DHT22;14537;47.788;11.858;2022-08-20T02:34:48;15.80;99.90
26990;DHT22;14537;47.788;11.858;2022-08-20T02:37:14;15.80;99.90
26990;DHT22;14537;47.788;11.858;2022-08-20T02:39:41;15.80;99.90
26990;DHT22;14537;47.788;11.858;2022-08-20T02:42:07;15.80;99.90
26990;DHT22;14537;47.788;11.858;2022-08-20T02:44:33;15.80;99.90
26990;DHT22;14537;47.788;11.858;2022-08-20T02:47:00;15.80;99.90
26990;DHT22;14537;47.788;11.858;2022-08-20T02:49:25;15.80;99.90
26990;DHT22;14537;47.788;11.858;2022-08-20T02:51:51;15.90;99.90
26990;DHT22;14537;47.788;11.858;2022-08-20T02:54:17;15.90;99.90
26990;DHT22;14537;47.788;11.858;2022-08-20T02:56:42;15.90;99.90
26990;DHT22;14537;47.788;11.858;2022-08-20T02:59:08;15.90;99.90
26990;DHT22;14537;47.788;11.858;2022-08-20T03:01:33;15.90;99.90
26990;DHT22;14537;47.788;11.858;2022-08-20T03:04:00;15.90;99.90
26990;DHT22;14537;47.788;11.858;2022-08-20T03:06:27;15.90;99.90
26990;DHT22;14537;47.788;11.858;2022-08-20T03:08:52;15.90;99.90
26990;DHT22;14537;47.788;11.858;2022-08-20T03:11:18;15.90;99.90
26990;DHT22;14537;47.788;11.858;2022-08-20T03:13:45;15.90;99.90
26990;DHT22;14537;47.788;11.858;2022-08-20T03:16:10;15.90;99.90
26990;DHT22;14537;47.788;11.858;2022-08-20T03:18:37;15.90;99.90
26990;DHT22;14537;47.788;11.858;2022-08-20T03:21:06;15.90;99.90
26990;DHT22;14537;47.788;11.858;2022-08-20T03:23:32;15.90;99.90
26990;DHT22;14537;47.788;11.858;2022-08-20T03:25:58;15.90;99.90
26990;DHT22;14537;47.788;11.858;2022-08-20T03:28:24;15.80;99.90
26990;DHT22;14537;47.788;11.858;2022-08-20T03:30:50;15.80;99.90
26990;DHT22;14537;47.788;11.858;2022-08-20T03:33:16;15.80;99.90
26990;DHT22;14537;47.788;11.858;2022-08-20T03:35:41;15.80;99.90
26990;DHT22;14537;47.788;11.858;2022-08-20T03:38:08;15.80;99.90
26990;DHT22;14537;47.788;11.858;2022-08-20T03:40:34;15.80;99.90
26990;DHT22;14537;47.788;11.858;2022-08-20T03:43:00;15.80;99.90
26990;DHT22;14537;47.788;11.858;2022-08-20T03:45:26;15.80;99.90
26990;DHT22;14537;47.788;11.858;2022-08-20T03:47:52;15.80;99.90
26990;DHT22;14537;47.788;11.858;2022-08-20T03:50:19;15.80;99.90
26990;DHT22;14537;47.788;11.858;2022-08-20T03:52:45;15.70;99.90
26990;DHT22;14537;47.788;11.858;2022-08-20T03:55:11;15.80;99.90
26990;DHT22;14537;47.788;11.858;2022-08-20T03:57:42;15.80;99.90
26990;DHT22;14537;47.788;11.858;2022-08-20T04:00:08;15.80;99.90
26990;DHT22;14537;47.788;11.858;2022-08-20T04:02:34;15.80;99.90
26990;DHT22;14537;47.788;11.858;2022-08-20T04:04:59;15.80;99.90
26990;DHT22;14537;47.788;11.858;2022-08-20T04:07:25;15.80;99.90
26990;DHT22;14537;47.788;11.858;2022-08-20T04:09:52;15.80;99.90
26990;DHT22;14537;47.788;11.858;2022-08-20T04:12:18;15.80;99.90
26990;DHT22;14537;47.788;11.858;2022-08-20T04:14:45;15.80;99.90
26990;DHT22;14537;47.788;11.858;2022-08-20T04:17:11;15.80;99.90
26990;DHT22;14537;47.788;11.858;2022-08-20T04:19:38;15.80;99.90
26990;DHT22;14537;47.788;11.858;2022-08-20T04:22:04;15.80;99.90
26990;DHT22;14537;47.788;11.858;2022-08-20T04:24:30;15.80;99.90
26990;DHT22;14537;47.788;11.858;2022-08-20T04:26:56;15.80;99.90
26990;DHT22;14537;47.788;11.858;2022-08-20T04:29:23;15.80;99.90
26990;DHT22;14537;47.788;11.858;2022-08-20T04:31:50;15.80;99.90
26990;DHT22;14537;47.788;11.858;2022-08-20T04:34:16;15.80;99.90
26990;DHT22;14537;47.788;11.858;2022-08-20T04:36:44;15.70;99.90
26990;DHT22;14537;47.788;11.858;2022-08-20T04:39:11;15.80;99.90
26990;DHT22;14537;47.788;11.858;2022-08-20T04:41:36;15.80;99.90
26990;DHT22;14537;47.788;11.858;2022-08-20T04:44:02;15.80;99.90
26990;DHT22;14537;47.788;11.858;2022-08-20T04:46:28;15.80;99.90
26990;DHT22;14537;47.788;11.858;2022-08-20T04:48:54;15.80;99.90
26990;DHT22;14537;47.788;11.858;2022-08-20T04:51:20;15.80;99.90
26990;DHT22;14537;47.788;11.858;2022-08-20T04:53:45;15.70;99.90
26990;DHT22;14537;47.788;11.858;2022-08-20T04:56:11;15.80;99.90
26990;DHT22;14537;47.788;11.858;2022-08-20T04:58:38;15.70;99.90
26990;DHT22;14537;47.788;11.858;2022-08-20T05:01:05;15.80;99.90
26990;DHT22;14537;47.788;11.858;2022-08-20T05:03:31;15.80;99.90
26990;DHT22;14537;47.788;11.858;2022-08-20T05:05:56;15.80;99.90
26990;DHT22;14537;47.788;11.858;2022-08-20T05:08:22;15.70;99.90
26990;DHT22;14537;47.788;11.858;2022-08-20T05:10:50;15.80;99.90
26990;DHT22;14537;47.788;11.858;2022-08-20T05:13:16;15.80;99.90
26990;DHT22;14537;47.788;11.858;2022-08-20T05:15:41;15.80;99.90
26990;DHT22;14537;47.788;11.858;2022-08-20T05:18:09;15.80;99.90
26990;DHT22;14537;47.788;11.858;2022-08-20T05:20:36;15.70;99.90
26990;DHT22;14537;47.788;11.858;2022-08-20T05:23:03;15.70;99.90
26990;DHT22;14537;47.788;11.858;2022-08-20T05:25:29;15.80;99.90
26990;DHT22;14537;47.788;11.858;2022-08-20T05:27:55;15.80;99.90
26990;DHT22;14537;47.788;11.858;2022-08-20T05:30:21;15.80;99.90
26990;DHT22;14537;47.788;11.858;2022-08-20T05:32:46;15.80;99.90
26990;DHT22;14537;47.788;11.858;2022-08-20T05:35:13;15.80;99.90
26990;DHT22;14537;47.788;11.858;2022-08-20T05:37:39;15.70;99.90
26990;DHT22;14537;47.788;11.858;2022-08-20T05:40:12;15.80;99.90
26990;DHT22;14537;47.788;11.858;2022-08-20T05:42:38;15.80;99.90
26990;DHT22;14537;47.788;11.858;2022-08-20T05:45:05;15.80;99.90
26990;DHT22;14537;47.788;11.858;2022-08-20T05:47:31;15.90;99.90
26990;DHT22;14537;47.788;11.858;2022-08-20T05:49:56;15.80;99.90
26990;DHT22;14537;47.788;11.858;2022-08-20T05:52:22;15.80;99.90
26990;DHT22;14537;47.788;11.858;2022-08-20T05:54:48;15.80;99.90
26990;DHT22;14537;47.788;11.858;2022-08-20T05:57:17;15.80;99.90
26990;DHT22;14537;47.788;11.858;2022-08-20T05:59:46;15.80;99.90
26990;DHT22;14537;47.788;11.858;2022-08-20T06:02:12;15.80;99.90
26990;DHT22;14537;47.788;11.858;2022-08-20T06:04:56;15.80;99.90
26990;DHT22;14537;47.788;11.858;2022-08-20T06:07:22;15.80;99.90
26990;DHT22;14537;47.788;11.858;2022-08-20T06:09:48;15.90;99.90
26990;DHT22;14537;47.788;11.858;2022-08-20T06:12:13;15.90;99.90
26990;DHT22;14537;47.788;11.858;2022-08-20T06:14:39;15.80;99.90
26990;DHT22;14537;47.788;11.858;2022-08-20T06:17:06;15.80;99.90
26990;DHT22;14537;47.788;11.858;2022-08-20T06:19:32;15.80;99.90
26990;DHT22;14537;47.788;11.858;2022-08-20T06:21:58;15.90;99.90
26990;DHT22;14537;47.788;11.858;2022-08-20T06:24:24;15.90;99.90
26990;DHT22;14537;47.788;11.858;2022-08-20T06:26:56;15.90;99.90
26990;DHT22;14537;47.788;11.858;2022-08-20T06:29:21;15.80;99.90
26990;DHT22;14537;47.788;11.858;2022-08-20T06:31:47;15.80;99.90
26990;DHT22;14537;47.788;11.858;2022-08-20T06:34:12;15.80;99.90
26990;DHT22;14537;47.788;11.858;2022-08-20T06:36:39;15.80;99.90
26990;DHT22;14537;47.788;11.858;2022-08-20T06:39:04;15.80;99.90
26990;DHT22;14537;47.788;11.858;2022-08-20T06:41:30;15.80;99.90
26990;DHT22;14537;47.788;11.858;2022-08-20T06:43:56;15.80;99.90
26990;DHT22;14537;47.788;11.858;2022-08-20T06:46:22;15.80;99.90
26990;DHT22;14537;47.788;11.858;2022-08-20T06:48:48;15.80;99.90
26990;DHT22;14537;47.788;11.858;2022-08-20T06:51:13;15.80;99.90
26990;DHT22;14537;47.788;11.858;2022-08-20T06:53:39;15.90;99.90
26990;DHT22;14537;47.788;11.858;2022-08-20T06:56:05;15.90;99.90
26990;DHT22;14537;47.788;11.858;2022-08-20T06:58:31;15.90;99.90
26990;DHT22;14537;47.788;11.858;2022-08-20T07:00:56;15.90;99.90
26990;DHT22;14537;47.788;11.858;2022-08-20T07:03:22;15.90;99.90
26990;DHT22;14537;47.788;11.858;2022-08-20T07:05:48;15.90;99.90
26990;DHT22;14537;47.788;11.858;2022-08-20T07:08:14;15.90;99.90
26990;DHT22;14537;47.788;11.858;2022-08-20T07:10:43;15.90;99.90
26990;DHT22;14537;47.788;11.858;2022-08-20T07:13:09;16.00;99.90
26990;DHT22;14537;47.788;11.858;2022-08-20T07:15:36;16.00;99.90
26990;DHT22;14537;47.788;11.858;2022-08-20T07:18:02;16.00;99.90
26990;DHT22;14537;47.788;11.858;2022-08-20T07:20:29;16.00;99.90
26990;DHT22;14537;47.788;11.858;2022-08-20T07:22:56;16.00;99.90
26990;DHT22;14537;47.788;11.858;2022-08-20T07:25:22;16.20;99.90
26990;DHT22;14537;47.788;11.858;2022-08-20T07:27:48;16.20;99.90
26990;DHT22;14537;47.788;11.858;2022-08-20T07:30:15;16.20;99.90
26990;DHT22;14537;47.788;11.858;2022-08-20T07:33:00;16.20;99.90
26990;DHT22;14537;47.788;11.858;2022-08-20T07:35:25;16.20;99.90
26990;DHT22;14537;47.788;11.858;2022-08-20T07:37:51;16.20;99.90
26990;DHT22;14537;47.788;11.858;2022-08-20T07:40:21;16.30;99.90
26990;DHT22;14537;47.788;11.858;2022-08-20T07:42:47;16.30;99.90
26990;DHT22;14537;47.788;11.858;2022-08-20T07:45:15;16.30;99.90
26990;DHT22;14537;47.788;11.858;2022-08-20T07:47:42;16.30;99.90
26990;DHT22;14537;47.788;11.858;2022-08-20T07:50:09;16.30;99.90
26990;DHT22;14537;47.788;11.858;2022-08-20T07:52:35;16.20;99.90
26990;DHT22;14537;47.788;11.858;2022-08-20T07:55:01;16.20;99.90
26990;DHT22;14537;47.788;11.858;2022-08-20T07:57:27;16.20;99.90
26990;DHT22;14537;47.788;11.858;2022-08-20T07:59:53;16.20;99.90
26990;DHT22;14537;47.788;11.858;2022-08-20T08:02:18;16.20;99.90
26990;DHT22;14537;47.788;11.858;2022-08-20T08:04:44;16.20;99.90
26990;DHT22;14537;47.788;11.858;2022-08-20T08:07:09;16.20;99.90
26990;DHT22;14537;47.788;11.858;2022-08-20T08:09:35;16.20;99.90
26990;DHT22;14537;47.788;11.858;2022-08-20T08:12:01;16.20;99.90
26990;DHT22;14537;47.788;11.858;2022-08-20T08:14:28;16.30;99.90
26990;DHT22;14537;47.788;11.858;2022-08-20T08:16:57;16.30;99.90
26990;DHT22;14537;47.788;11.858;2022-08-20T08:19:24;16.20;99.90
26990;DHT22;14537;47.788;11.858;2022-08-20T08:21:51;16.30;99.90
26990;DHT22;14537;47.788;11.858;2022-08-20T08:24:17;16.20;99.90
26990;DHT22;14537;47.788;11.858;2022-08-20T08:26:43;16.20;99.90
26990;DHT22;14537;47.788;11.858;2022-08-20T08:29:08;16.20;99.90
26990;DHT22;14537;47.788;11.858;2022-08-20T08:31:34;16.30;99.90
26990;DHT22;14537;47.788;11.858;2022-08-20T08:34:00;16.20;99.90
26990;DHT22;14537;47.788;11.858;2022-08-20T08:36:25;16.20;99.90
26990;DHT22;14537;47.788;11.858;2022-08-20T08:38:51;16.20;99.90
26990;DHT22;14537;47.788;11.858;2022-08-20T08:43:51;16.30;99.90
26990;DHT22;14537;47.788;11.858;2022-08-20T08:46:18;16.30;99.90
26990;DHT22;14537;47.788;11.858;2022-08-20T08:48:47;16.20;99.90
26990;DHT22;14537;47.788;11.858;2022-08-20T08:51:15;16.30;99.90
26990;DHT22;14537;47.788;11.858;2022-08-20T08:53:42;16.30;99.90
26990;DHT22;14537;47.788;11.858;2022-08-20T08:56:10;16.30;99.90
26990;DHT22;14537;47.788;11.858;2022-08-20T08:58:38;16.40;99.90
26990;DHT22;14537;47.788;11.858;2022-08-20T09:01:08;16.50;99.90
26990;DHT22;14537;47.788;11.858;2022-08-20T09:03:35;16.50;99.90
26990;DHT22;14537;47.788;11.858;2022-08-20T09:06:01;16.60;99.90
26990;DHT22;14537;47.788;11.858;2022-08-20T09:08:31;16.60;99.90
26990;DHT22;14537;47.788;11.858;2022-08-20T09:11:01;16.70;99.90
26990;DHT22;14537;47.788;11.858;2022-08-20T09:13:27;16.80;99.90
26990;DHT22;14537;47.788;11.858;2022-08-20T09:15:53;16.90;99.90
26990;DHT22;14537;47.788;11.858;2022-08-20T09:18:18;16.90;99.90
26990;DHT22;14537;47.788;11.858;2022-08-20T09:20:44;16.80;99.90
26990;DHT22;14537;47.788;11.858;2022-08-20T09:23:09;16.90;99.90
26990;DHT22;14537;47.788;11.858;2022-08-20T09:25:35;16.90;99.90
26990;DHT22;14537;47.788;11.858;2022-08-20T09:28:01;17.00;99.90
26990;DHT22;14537;47.788;11.858;2022-08-20T09:30:26;17.00;99.90
26990;DHT22;14537;47.788;11.858;2022-08-20T09:32:52;17.00;99.90
26990;DHT22;14537;47.788;11.858;2022-08-20T09:35:18;17.00;99.90
26990;DHT22;14537;47.788;11.858;2022-08-20T09:37:43;17.00;99.90
26990;DHT22;14537;47.788;11.858;2022-08-20T09:40:11;17.10;99.90
26990;DHT22;14537;47.788;11.858;2022-08-20T09:42:37;17.10;99.90
26990;DHT22;14537;47.788;11.858;2022-08-20T09:45:03;16.90;99.90
26990;DHT22;14537;47.788;11.858;2022-08-20T09:47:29;16.80;99.90
26990;DHT22;14537;47.788;11.858;2022-08-20T09:49:54;16.90;99.90
26990;DHT22;14537;47.788;11.858;2022-08-20T09:52:24;16.90;99.90
26990;DHT22;14537;47.788;11.858;2022-08-20T09:54:51;16.90;99.90
26990;DHT22;14537;47.788;11.858;2022-08-20T09:57:19;16.90;99.90
26990;DHT22;14537;47.788;11.858;2022-08-20T09:59:45;16.90;99.90
26990;DHT22;14537;47.788;11.858;2022-08-20T10:02:12;17.00;99.90
26990;DHT22;14537;47.788;11.858;2022-08-20T10:04:38;17.10;99.90
26990;DHT22;14537;47.788;11.858;2022-08-20T10:07:06;17.10;99.90
26990;DHT22;14537;47.788;11.858;2022-08-20T10:09:33;17.00;99.90
26990;DHT22;14537;47.788;11.858;2022-08-20T10:11:59;17.10;99.90
26990;DHT22;14537;47.788;11.858;2022-08-20T10:14:25;17.10;99.90
26990;DHT22;14537;47.788;11.858;2022-08-20T10:16:54;17.10;99.90
26990;DHT22;14537;47.788;11.858;2022-08-20T10:19:20;17.00;99.90
26990;DHT22;14537;47.788;11.858;2022-08-20T10:21:45;17.00;99.90
26990;DHT22;14537;47.788;11.858;2022-08-20T10:24:11;17.00;99.90
26990;DHT22;14537;47.788;11.858;2022-08-20T10:26:37;17.00;99.90
26990;DHT22;14537;47.788;11.858;2022-08-20T10:29:02;17.10;99.90
26990;DHT22;14537;47.788;11.858;2022-08-20T10:31:28;17.00;99.90
26990;DHT22;14537;47.788;11.858;2022-08-20T10:33:53;17.10;99.90
26990;DHT22;14537;47.788;11.858;2022-08-20T10:36:19;17.10;99.90
26990;DHT22;14537;47.788;11.858;2022-08-20T10:38:45;17.20;99.90
26990;DHT22;14537;47.788;11.858;2022-08-20T10:41:10;17.20;99.90
26990;DHT22;14537;47.788;11.858;2022-08-20T10:43:36;17.10;99.90
26990;DHT22;14537;47.788;11.858;2022-08-20T10:46:01;17.20;99.90
26990;DHT22;14537;47.788;11.858;2022-08-20T10:48:27;17.30;99.90
26990;DHT22;14537;47.788;11.858;2022-08-20T10:50:53;17.30;99.90
26990;DHT22;14537;47.788;11.858;2022-08-20T10:53:19;17.40;99.90
26990;DHT22;14537;47.788;11.858;2022-08-20T10:55:44;17.50;99.90
26990;DHT22;14537;47.788;11.858;2022-08-20T10:58:10;17.60;99.90
26990;DHT22;14537;47.788;11.858;2022-08-20T11:00:37;17.70;99.90
26990;DHT22;14537;47.788;11.858;2022-08-20T11:03:03;17.70;99.90
26990;DHT22;14537;47.788;11.858;2022-08-20T11:05:29;17.80;99.90
26990;DHT22;14537;47.788;11.858;2022-08-20T11:07:54;17.80;99.90
26990;DHT22;14537;47.788;11.858;2022-08-20T11:10:20;17.80;99.90
26990;DHT22;14537;47.788;11.858;2022-08-20T11:12:46;17.80;99.90
26990;DHT22;14537;47.788;11.858;2022-08-20T11:15:13;17.90;99.90
26990;DHT22;14537;47.788;11.858;2022-08-20T11:17:39;18.00;99.90
26990;DHT22;14537;47.788;11.858;2022-08-20T11:20:05;18.00;99.90
26990;DHT22;14537;47.788;11.858;2022-08-20T11:22:32;18.00;99.90
26990;DHT22;14537;47.788;11.858;2022-08-20T11:24:58;18.00;99.90
26990;DHT22;14537;47.788;11.858;2022-08-20T11:27:25;18.00;99.90
26990;DHT22;14537;47.788;11.858;2022-08-20T11:29:51;18.00;99.90
26990;DHT22;14537;47.788;11.858;2022-08-20T11:32:16;18.00;99.90
26990;DHT22;14537;47.788;11.858;2022-08-20T11:34:42;18.10;99.90
26990;DHT22;14537;47.788;11.858;2022-08-20T11:37:08;18.10;99.90
26990;DHT22;14537;47.788;11.858;2022-08-20T11:39:33;18.00;99.90
26990;DHT22;14537;47.788;11.858;2022-08-20T11:41:59;17.90;99.90
26990;DHT22;14537;47.788;11.858;2022-08-20T11:44:26;17.90;99.90
26990;DHT22;14537;47.788;11.858;2022-08-20T11:46:51;18.00;99.90
26990;DHT22;14537;47.788;11.858;2022-08-20T11:49:17;18.00;99.90
26990;DHT22;14537;47.788;11.858;2022-08-20T11:51:42;18.10;99.90
26990;DHT22;14537;47.788;11.858;2022-08-20T11:54:08;18.10;99.90
26990;DHT22;14537;47.788;11.858;2022-08-20T11:56:34;18.20;99.90
26990;DHT22;14537;47.788;11.858;2022-08-20T11:58:59;18.30;99.90
26990;DHT22;14537;47.788;11.858;2022-08-20T12:01:25;18.30;99.90
26990;DHT22;14537;47.788;11.858;2022-08-20T12:03:50;18.40;99.90
26990;DHT22;14537;47.788;11.858;2022-08-20T12:06:16;18.40;99.90
26990;DHT22;14537;47.788;11.858;2022-08-20T12:08:41;18.50;99.90
26990;DHT22;14537;47.788;11.858;2022-08-20T12:11:07;18.40;99.90
26990;DHT22;14537;47.788;11.858;2022-08-20T12:13:34;18.40;99.90
26990;DHT22;14537;47.788;11.858;2022-08-20T12:16:00;18.50;99.90
26990;DHT22;14537;47.788;11.858;2022-08-20T12:18:25;18.60;99.90
26990;DHT22;14537;47.788;11.858;2022-08-20T12:20:51;18.60;99.90
26990;DHT22;14537;47.788;11.858;2022-08-20T12:23:17;18.70;99.90
26990;DHT22;14537;47.788;11.858;2022-08-20T12:25:43;18.80;99.90
26990;DHT22;14537;47.788;11.858;2022-08-20T12:28:10;18.80;99.90
26990;DHT22;14537;47.788;11.858;2022-08-20T12:30:36;18.70;99.90
26990;DHT22;14537;47.788;11.858;2022-08-20T12:33:01;18.70;99.90
26990;DHT22;14537;47.788;11.858;2022-08-20T12:35:27;18.50;99.90
26990;DHT22;14537;47.788;11.858;2022-08-20T12:37:54;18.30;99.90
26990;DHT22;14537;47.788;11.858;2022-08-20T12:40:21;18.20;99.90
26990;DHT22;14537;47.788;11.858;2022-08-20T12:42:47;18.10;99.90
26990;DHT22;14537;47.788;11.858;2022-08-20T12:45:13;18.10;99.90
26990;DHT22;14537;47.788;11.858;2022-08-20T12:47:40;18.20;99.90
26990;DHT22;14537;47.788;11.858;2022-08-20T12:50:11;18.20;99.90
26990;DHT22;14537;47.788;11.858;2022-08-20T12:52:37;18.30;99.90
26990;DHT22;14537;47.788;11.858;2022-08-20T12:55:04;18.50;99.90
26990;DHT22;14537;47.788;11.858;2022-08-20T12:59:56;18.30;99.90
26990;DHT22;14537;47.788;11.858;2022-08-20T13:02:22;18.40;99.90
26990;DHT22;14537;47.788;11.858;2022-08-20T13:04:47;18.40;99.90
26990;DHT22;14537;47.788;11.858;2022-08-20T13:07:13;18.30;99.90
26990;DHT22;14537;47.788;11.858;2022-08-20T13:09:39;18.30;99.90
26990;DHT22;14537;47.788;11.858;2022-08-20T13:12:07;18.30;99.90
26990;DHT22;14537;47.788;11.858;2022-08-20T13:14:33;18.30;99.90
26990;DHT22;14537;47.788;11.858;2022-08-20T13:16:59;18.40;99.90
26990;DHT22;14537;47.788;11.858;2022-08-20T13:19:25;18.30;99.90
26990;DHT22;14537;47.788;11.858;2022-08-20T13:21:51;18.30;99.90
26990;DHT22;14537;47.788;11.858;2022-08-20T13:24:17;18.10;99.90
26990;DHT22;14537;47.788;11.858;2022-08-20T13:26:42;17.70;99.90
26990;DHT22;14537;47.788;11.858;2022-08-20T13:29:08;17.70;99.90
26990;DHT22;14537;47.788;11.858;2022-08-20T13:31:34;17.80;99.90
26990;DHT22;14537;47.788;11.858;2022-08-20T13:33:59;18.00;99.90
26990;DHT22;14537;47.788;11.858;2022-08-20T13:36:25;18.20;99.90
26990;DHT22;14537;47.788;11.858;2022-08-20T13:38:50;18.30;99.90
26990;DHT22;14537;47.788;11.858;2022-08-20T13:41:16;18.50;99.90
26990;DHT22;14537;47.788;11.858;2022-08-20T13:43:42;18.60;99.90
26990;DHT22;14537;47.788;11.858;2022-08-20T13:46:08;18.50;99.90
26990;DHT22;14537;47.788;11.858;2022-08-20T13:48:33;18.40;99.90
26990;DHT22;14537;47.788;11.858;2022-08-20T13:50:59;18.50;99.90
26990;DHT22;14537;47.788;11.858;2022-08-20T13:53:25;18.60;99.90
26990;DHT22;14537;47.788;11.858;2022-08-20T13:55:51;18.60;99.90
26990;DHT22;14537;47.788;11.858;2022-08-20T13:58:16;18.80;99.90
26990;DHT22;14537;47.788;11.858;2022-08-20T14:00:43;18.90;99.90
26990;DHT22;14537;47.788;11.858;2022-08-20T14:03:09;19.00;99.90
26990;DHT22;14537;47.788;11.858;2022-08-20T14:05:35;19.10;99.90
26990;DHT22;14537;47.788;11.858;2022-08-20T14:08:04;19.30;99.90
26990;DHT22;14537;47.788;11.858;2022-08-20T14:10:30;19.40;99.90
26990;DHT22;14537;47.788;11.858;2022-08-20T14:12:57;19.60;99.90
26990;DHT22;14537;47.788;11.858;2022-08-20T14:15:23;19.70;99.90
26990;DHT22;14537;47.788;11.858;2022-08-20T14:17:50;19.80;99.90
26990;DHT22;14537;47.788;11.858;2022-08-20T14:20:17;19.90;99.90
26990;DHT22;14537;47.788;11.858;2022-08-20T14:22:43;20.00;99.90
26990;DHT22;14537;47.788;11.858;2022-08-20T14:25:10;20.00;99.90
26990;DHT22;14537;47.788;11.858;2022-08-20T14:27:36;19.90;99.90
26990;DHT22;14537;47.788;11.858;2022-08-20T14:30:03;19.90;99.90
26990;DHT22;14537;47.788;11.858;2022-08-20T14:32:29;19.80;99.90
26990;DHT22;14537;47.788;11.858;2022-08-20T14:34:55;19.90;99.90
26990;DHT22;14537;47.788;11.858;2022-08-20T14:37:29;19.80;99.90
26990;DHT22;14537;47.788;11.858;2022-08-20T14:39:56;19.90;99.90
26990;DHT22;14537;47.788;11.858;2022-08-20T14:42:22;19.80;99.90
26990;DHT22;14537;47.788;11.858;2022-08-20T14:44:48;19.80;99.90
26990;DHT22;14537;47.788;11.858;2022-08-20T14:47:21;19.70;99.90
26990;DHT22;14537;47.788;11.858;2022-08-20T14:49:48;19.70;99.90
26990;DHT22;14537;47.788;11.858;2022-08-20T14:52:14;19.70;99.90
26990;DHT22;14537;47.788;11.858;2022-08-20T14:54:40;19.60;99.90
26990;DHT22;14537;47.788;11.858;2022-08-20T14:57:06;19.30;99.90
26990;DHT22;14537;47.788;11.858;2022-08-20T14:59:32;19.30;99.90
26990;DHT22;14537;47.788;11.858;2022-08-20T15:01:58;19.20;99.90
26990;DHT22;14537;47.788;11.858;2022-08-20T15:04:24;18.90;99.90
26990;DHT22;14537;47.788;11.858;2022-08-20T15:06:50;18.70;99.90
26990;DHT22;14537;47.788;11.858;2022-08-20T15:09:15;18.50;99.90
26990;DHT22;14537;47.788;11.858;2022-08-20T15:11:41;18.40;99.90
26990;DHT22;14537;47.788;11.858;2022-08-20T15:14:07;18.50;99.90
26990;DHT22;14537;47.788;11.858;2022-08-20T15:16:32;18.90;99.90
26990;DHT22;14537;47.788;11.858;2022-08-20T15:18:58;18.90;99.90
26990;DHT22;14537;47.788;11.858;2022-08-20T15:21:24;18.90;99.90
26990;DHT22;14537;47.788;11.858;2022-08-20T15:23:49;19.20;99.90
26990;DHT22;14537;47.788;11.858;2022-08-20T15:26:15;18.80;99.90